sensor_id;sensor_type;location;lat;lon;timestamp;pressure;altitude;pressure_sealevel;temperature;humidity
46534;BME280;32260;52.008;4.752;2023-06-10T00:02:09;101553.28;;;21.80;53.68
46534;BME280;32260;52.008;4.752;2023-06-10T00:04:35;101548.84;;;21.79;53.99
46534;BME280;32260;52.008;4.752;2023-06-10T00:07:04;101554.34;;;21.77;53.72
46534;BME280;32260;52.008;4.752;2023-06-10T00:09:38;101550.00;;;21.75;53.70
46534;BME280;32260;52.008;4.752;2023-06-10T00:12:05;101551.28;;;21.68;54.67
46534;BME280;32260;52.008;4.752;2023-06-10T00:14:33;101545.28;;;21.62;54.73
46534;BME280;32260;52.008;4.752;2023-06-10T00:16:59;101553.63;;;21.58;54.41
46534;BME280;32260;52.008;4.752;2023-06-10T00:19:25;101562.72;;;21.55;55.31
46534;BME280;32260;52.008;4.752;2023-06-10T00:21:52;101548.63;;;21.50;55.76
46534;BME280;32260;52.008;4.752;2023-06-10T00:24:18;101557.84;;;21.46;56.29
46534;BME280;32260;52.008;4.752;2023-06-10T00:26:44;101559.88;;;21.41;54.99
46534;BME280;32260;52.008;4.752;2023-06-10T00:29:10;101548.50;;;21.36;55.54
46534;BME280;32260;52.008;4.752;2023-06-10T00:31:37;101559.44;;;21.32;56.44
46534;BME280;32260;52.008;4.752;2023-06-10T00:34:04;101554.31;;;21.28;55.90
46534;BME280;32260;52.008;4.752;2023-06-10T00:36:30;101553.69;;;21.23;55.58
46534;BME280;32260;52.008;4.752;2023-06-10T00:38:57;101549.34;;;21.20;56.40
46534;BME280;32260;52.008;4.752;2023-06-10T00:41:23;101554.00;;;21.16;55.47
46534;BME280;32260;52.008;4.752;2023-06-10T00:43:49;101548.00;;;21.11;56.44
46534;BME280;32260;52.008;4.752;2023-06-10T00:46:16;101557.13;;;21.09;56.05
46534;BME280;32260;52.008;4.752;2023-06-10T00:48:45;101555.53;;;21.05;56.54
46534;BME280;32260;52.008;4.752;2023-06-10T00:51:12;101555.69;;;21.01;55.62
46534;BME280;32260;52.008;4.752;2023-06-10T00:53:40;101558.53;;;20.98;56.77
46534;BME280;32260;52.008;4.752;2023-06-10T00:56:07;101554.28;;;20.94;56.57
46534;BME280;32260;52.008;4.752;2023-06-10T00:58:33;101557.13;;;20.91;56.15
46534;BME280;32260;52.008;4.752;2023-06-10T01:00:59;101559.13;;;20.88;56.66
46534;BME280;32260;52.008;4.752;2023-06-10T01:03:26;101556.56;;;20.84;56.87
46534;BME280;32260;52.008;4.752;2023-06-10T01:05:59;101558.41;;;20.84;56.63
46534;BME280;32260;52.008;4.752;2023-06-10T01:11:40;101554.28;;;20.77;56.45
46534;BME280;32260;52.008;4.752;2023-06-10T01:14:10;101554.50;;;20.72;56.37
46534;BME280;32260;52.008;4.752;2023-06-10T01:16:36;101560.91;;;20.69;55.93
46534;BME280;32260;52.008;4.752;2023-06-10T01:19:03;101564.63;;;20.67;57.41
46534;BME280;32260;52.008;4.752;2023-06-10T01:21:29;101558.50;;;20.63;56.16
46534;BME280;32260;52.008;4.752;2023-06-10T01:23:57;101558.69;;;20.60;56.95
46534;BME280;32260;52.008;4.752;2023-06-10T01:26:28;101561.47;;;20.59;56.86
46534;BME280;32260;52.008;4.752;2023-06-10T01:28:57;101563.59;;;20.69;57.67
46534;BME280;32260;52.008;4.752;2023-06-10T01:31:41;101563.25;;;20.58;56.37
46534;BME280;32260;52.008;4.752;2023-06-10T01:34:10;101559.22;;;20.49;56.57
46534;BME280;32260;52.008;4.752;2023-06-10T01:36:39;101563.88;;;20.46;56.97
46534;BME280;32260;52.008;4.752;2023-06-10T01:39:08;101560.41;;;20.44;58.03
46534;BME280;32260;52.008;4.752;2023-06-10T01:41:37;101564.19;;;20.40;57.75
46534;BME280;32260;52.008;4.752;2023-06-10T01:44:03;101566.09;;;20.38;57.35
46534;BME280;32260;52.008;4.752;2023-06-10T01:46:30;101562.63;;;20.35;56.55
46534;BME280;32260;52.008;4.752;2023-06-10T01:48:56;101569.88;;;20.33;57.47
46534;BME280;32260;52.008;4.752;2023-06-10T01:51:22;101562.75;;;20.32;57.96
46534;BME280;32260;52.008;4.752;2023-06-10T01:53:48;101569.25;;;20.28;57.61
46534;BME280;32260;52.008;4.752;2023-06-10T01:56:14;101565.69;;;20.28;57.01
46534;BME280;32260;52.008;4.752;2023-06-10T01:58:46;101569.31;;;20.27;56.88
46534;BME280;32260;52.008;4.752;2023-06-10T02:01:13;101570.34;;;20.24;57.08
46534;BME280;32260;52.008;4.752;2023-06-10T02:03:39;101572.16;;;20.24;56.27
46534;BME280;32260;52.008;4.752;2023-06-10T02:06:06;101564.16;;;20.22;56.43
46534;BME280;32260;52.008;4.752;2023-06-10T02:08:32;101570.47;;;20.21;56.69
46534;BME280;32260;52.008;4.752;2023-06-10T02:10:58;101574.28;;;20.17;57.35
46534;BME280;32260;52.008;4.752;2023-06-10T02:13:24;101576.16;;;20.15;57.01
46534;BME280;32260;52.008;4.752;2023-06-10T02:15:50;101570.00;;;20.13;56.64
46534;BME280;32260;52.008;4.752;2023-06-10T02:18:16;101577.25;;;20.11;57.27
46534;BME280;32260;52.008;4.752;2023-06-10T02:20:46;101571.06;;;20.09;57.96
46534;BME280;32260;52.008;4.752;2023-06-10T02:23:12;101575.81;;;20.03;57.60
46534;BME280;32260;52.008;4.752;2023-06-10T02:25:38;101576.75;;;20.02;57.60
46534;BME280;32260;52.008;4.752;2023-06-10T02:28:05;101568.94;;;19.98;57.08
46534;BME280;32260;52.008;4.752;2023-06-10T02:30:32;101572.69;;;19.94;57.58
46534;BME280;32260;52.008;4.752;2023-06-10T02:32:58;101572.69;;;19.94;57.13
46534;BME280;32260;52.008;4.752;2023-06-10T02:35:25;101571.03;;;19.91;57.29
46534;BME280;32260;52.008;4.752;2023-06-10T02:37:51;101565.72;;;19.90;56.94
46534;BME280;32260;52.008;4.752;2023-06-10T02:40:17;101570.28;;;19.87;56.85
46534;BME280;32260;52.008;4.752;2023-06-10T02:42:43;101570.38;;;19.86;57.03
46534;BME280;32260;52.008;4.752;2023-06-10T02:45:09;101569.50;;;19.85;56.89
46534;BME280;32260;52.008;4.752;2023-06-10T02:47:38;101572.28;;;19.84;57.04
46534;BME280;32260;52.008;4.752;2023-06-10T02:50:06;101583.28;;;19.78;56.67
46534;BME280;32260;52.008;4.752;2023-06-10T02:52:32;101577.91;;;19.78;56.33
46534;BME280;32260;52.008;4.752;2023-06-10T02:54:58;101573.56;;;19.75;56.43
46534;BME280;32260;52.008;4.752;2023-06-10T02:57:24;101576.28;;;19.73;56.83
46534;BME280;32260;52.008;4.752;2023-06-10T02:59:51;101583.59;;;19.71;56.50
46534;BME280;32260;52.008;4.752;2023-06-10T03:02:17;101578.34;;;19.68;56.90
46534;BME280;32260;52.008;4.752;2023-06-10T03:04:43;101581.09;;;19.67;56.57
46534;BME280;32260;52.008;4.752;2023-06-10T03:07:11;101576.66;;;19.66;56.36
46534;BME280;32260;52.008;4.752;2023-06-10T03:09:37;101581.31;;;19.62;56.46
46534;BME280;32260;52.008;4.752;2023-06-10T03:12:03;101572.47;;;19.60;56.44
46534;BME280;32260;52.008;4.752;2023-06-10T03:14:29;101584.16;;;19.59;56.33
46534;BME280;32260;52.008;4.752;2023-06-10T03:16:55;101577.16;;;19.55;56.52
46534;BME280;32260;52.008;4.752;2023-06-10T03:19:22;101586.19;;;19.54;56.37
46534;BME280;32260;52.008;4.752;2023-06-10T03:21:59;101582.69;;;19.52;56.04
46534;BME280;32260;52.008;4.752;2023-06-10T03:24:32;101582.75;;;19.50;56.17
46534;BME280;32260;52.008;4.752;2023-06-10T03:26:58;101585.50;;;19.49;56.29
46534;BME280;32260;52.008;4.752;2023-06-10T03:29:24;101589.16;;;19.48;56.12
46534;BME280;32260;52.008;4.752;2023-06-10T03:31:50;101592.78;;;19.47;56.11
46534;BME280;32260;52.008;4.752;2023-06-10T03:34:16;101588.34;;;19.46;56.10
46534;BME280;32260;52.008;4.752;2023-06-10T03:36:42;101596.41;;;19.46;55.79
46534;BME280;32260;52.008;4.752;2023-06-10T03:39:09;101597.34;;;19.45;56.02
46534;BME280;32260;52.008;4.752;2023-06-10T03:41:35;101593.84;;;19.43;56.05
46534;BME280;32260;52.008;4.752;2023-06-10T03:44:02;101600.09;;;19.43;56.09
46534;BME280;32260;52.008;4.752;2023-06-10T03:46:28;101595.75;;;19.40;56.39
46534;BME280;32260;52.008;4.752;2023-06-10T03:48:54;101597.53;;;19.40;56.36
46534;BME280;32260;52.008;4.752;2023-06-10T03:51:20;101602.03;;;19.39;56.20
46534;BME280;32260;52.008;4.752;2023-06-10T03:53:46;101603.81;;;19.40;56.52
46534;BME280;32260;52.008;4.752;2023-06-10T03:56:12;101598.50;;;19.39;56.05
46534;BME280;32260;52.008;4.752;2023-06-10T03:58:38;101608.34;;;19.38;56.09
46534;BME280;32260;52.008;4.752;2023-06-10T04:01:04;101614.63;;;19.39;56.38
46534;BME280;32260;52.008;4.752;2023-06-10T04:03:31;101597.59;;;19.38;56.28
46534;BME280;32260;52.008;4.752;2023-06-10T04:05:57;101612.78;;;19.39;56.38
46534;BME280;32260;52.008;4.752;2023-06-10T04:08:24;101603.88;;;19.39;56.52
46534;BME280;32260;52.008;4.752;2023-06-10T04:10:50;101610.09;;;19.39;56.16
46534;BME280;32260;52.008;4.752;2023-06-10T04:13:16;101612.78;;;19.39;56.62
46534;BME280;32260;52.008;4.752;2023-06-10T04:15:42;101606.50;;;19.40;56.97
46534;BME280;32260;52.008;4.752;2023-06-10T04:18:08;101608.25;;;19.42;56.43
46534;BME280;32260;52.008;4.752;2023-06-10T04:20:34;101613.47;;;19.45;56.32
46534;BME280;32260;52.008;4.752;2023-06-10T04:23:00;101623.28;;;19.46;56.74
46534;BME280;32260;52.008;4.752;2023-06-10T04:25:27;101619.56;;;19.48;56.09
46534;BME280;32260;52.008;4.752;2023-06-10T04:27:54;101617.75;;;19.49;56.34
46534;BME280;32260;52.008;4.752;2023-06-10T04:30:21;101623.00;;;19.52;56.37
46534;BME280;32260;52.008;4.752;2023-06-10T04:32:48;101625.53;;;19.55;56.49
46534;BME280;32260;52.008;4.752;2023-06-10T04:35:16;101631.72;;;19.57;56.88
46534;BME280;32260;52.008;4.752;2023-06-10T04:37:42;101627.16;;;19.59;56.98
46534;BME280;32260;52.008;4.752;2023-06-10T04:40:09;101628.91;;;19.60;56.73
46534;BME280;32260;52.008;4.752;2023-06-10T04:42:36;101627.91;;;19.63;56.60
46534;BME280;32260;52.008;4.752;2023-06-10T04:45:03;101630.50;;;19.64;57.09
46534;BME280;32260;52.008;4.752;2023-06-10T04:47:30;101634.88;;;19.67;57.12
46534;BME280;32260;52.008;4.752;2023-06-10T04:50:00;101640.09;;;19.70;57.00
46534;BME280;32260;52.008;4.752;2023-06-10T04:52:27;101637.28;;;19.73;56.91
46534;BME280;32260;52.008;4.752;2023-06-10T04:54:53;101637.13;;;19.76;57.18
46534;BME280;32260;52.008;4.752;2023-06-10T04:57:20;101635.25;;;19.78;57.91
46534;BME280;32260;52.008;4.752;2023-06-10T04:59:46;101638.66;;;19.82;56.60
46534;BME280;32260;52.008;4.752;2023-06-10T05:02:13;101641.09;;;19.88;56.52
46534;BME280;32260;52.008;4.752;2023-06-10T05:04:39;101635.50;;;19.93;56.63
46534;BME280;32260;52.008;4.752;2023-06-10T05:07:05;101641.63;;;19.96;56.50
46534;BME280;32260;52.008;4.752;2023-06-10T05:09:31;101637.69;;;20.03;56.30
46534;BME280;32260;52.008;4.752;2023-06-10T05:11:58;101638.41;;;20.07;56.58
46534;BME280;32260;52.008;4.752;2023-06-10T05:14:25;101637.38;;;20.10;56.83
46534;BME280;32260;52.008;4.752;2023-06-10T05:16:51;101637.09;;;20.16;56.43
46534;BME280;32260;52.008;4.752;2023-06-10T05:19:17;101640.44;;;20.21;56.29
46534;BME280;32260;52.008;4.752;2023-06-10T05:21:45;101634.84;;;20.26;56.62
46534;BME280;32260;52.008;4.752;2023-06-10T05:24:11;101639.13;;;20.30;56.37
46534;BME280;32260;52.008;4.752;2023-06-10T05:26:37;101634.34;;;20.36;56.25
46534;BME280;32260;52.008;4.752;2023-06-10T05:29:05;101636.72;;;20.43;56.30
46534;BME280;32260;52.008;4.752;2023-06-10T05:31:31;101632.84;;;20.48;55.84
46534;BME280;32260;52.008;4.752;2023-06-10T05:33:57;101636.13;;;20.55;55.73
46534;BME280;32260;52.008;4.752;2023-06-10T05:36:24;101636.75;;;20.60;56.13
46534;BME280;32260;52.008;4.752;2023-06-10T05:38:57;101637.22;;;20.68;55.42
46534;BME280;32260;52.008;4.752;2023-06-10T05:41:24;101630.00;;;20.88;55.23
46534;BME280;32260;52.008;4.752;2023-06-10T05:43:51;101627.63;;;20.82;55.58
46534;BME280;32260;52.008;4.752;2023-06-10T05:46:17;101636.34;;;20.87;56.09
46534;BME280;32260;52.008;4.752;2023-06-10T05:48:43;101631.75;;;20.89;56.15
46534;BME280;32260;52.008;4.752;2023-06-10T05:51:09;101633.19;;;20.96;55.08
46534;BME280;32260;52.008;4.752;2023-06-10T05:53:36;101642.53;;;21.07;55.01
46534;BME280;32260;52.008;4.752;2023-06-10T05:56:02;101638.66;;;21.12;55.17
46534;BME280;32260;52.008;4.752;2023-06-10T05:58:28;101645.44;;;21.20;54.98
46534;BME280;32260;52.008;4.752;2023-06-10T06:00:54;101646.03;;;21.26;55.04
46534;BME280;32260;52.008;4.752;2023-06-10T06:03:20;101636.66;;;21.33;54.32
46534;BME280;32260;52.008;4.752;2023-06-10T06:05:47;101644.59;;;21.37;54.29
46534;BME280;32260;52.008;4.752;2023-06-10T06:08:13;101641.41;;;21.46;54.14
46534;BME280;32260;52.008;4.752;2023-06-10T06:10:43;101639.25;;;21.53;53.90
46534;BME280;32260;52.008;4.752;2023-06-10T06:13:09;101635.41;;;21.58;53.52
46534;BME280;32260;52.008;4.752;2023-06-10T06:15:35;101636.78;;;21.65;53.20
46534;BME280;32260;52.008;4.752;2023-06-10T06:18:01;101638.19;;;21.73;52.75
46534;BME280;32260;52.008;4.752;2023-06-10T06:20:27;101633.19;;;21.83;53.17
46534;BME280;32260;52.008;4.752;2023-06-10T06:22:53;101647.13;;;21.91;52.77
46534;BME280;32260;52.008;4.752;2023-06-10T06:25:20;101637.81;;;21.96;52.66
46534;BME280;32260;52.008;4.752;2023-06-10T06:27:46;101643.81;;;22.02;52.30
46534;BME280;32260;52.008;4.752;2023-06-10T06:30:12;101641.72;;;22.07;52.37
46534;BME280;32260;52.008;4.752;2023-06-10T06:32:38;101645.81;;;22.14;52.05
46534;BME280;32260;52.008;4.752;2023-06-10T06:35:05;101640.16;;;22.19;51.92
46534;BME280;32260;52.008;4.752;2023-06-10T06:37:33;101635.28;;;22.25;51.22
46534;BME280;32260;52.008;4.752;2023-06-10T06:40:00;101632.84;;;22.37;51.39
46534;BME280;32260;52.008;4.752;2023-06-10T06:42:26;101637.91;;;22.43;51.12
46534;BME280;32260;52.008;4.752;2023-06-10T06:44:52;101637.41;;;22.52;51.58
46534;BME280;32260;52.008;4.752;2023-06-10T06:47:18;101645.16;;;22.58;51.40
46534;BME280;32260;52.008;4.752;2023-06-10T06:49:46;101645.56;;;22.67;51.16
46534;BME280;32260;52.008;4.752;2023-06-10T06:52:13;101645.03;;;22.76;51.22
46534;BME280;32260;52.008;4.752;2023-06-10T06:54:39;101649.88;;;22.85;51.33
46534;BME280;32260;52.008;4.752;2023-06-10T06:57:05;101637.94;;;22.89;50.44
46534;BME280;32260;52.008;4.752;2023-06-10T06:59:32;101639.13;;;23.00;50.34
46534;BME280;32260;52.008;4.752;2023-06-10T07:01:59;101644.97;;;23.08;50.03
46534;BME280;32260;52.008;4.752;2023-06-10T07:04:25;101648.88;;;23.18;49.94
46534;BME280;32260;52.008;4.752;2023-06-10T07:06:51;101644.84;;;23.25;50.08
46534;BME280;32260;52.008;4.752;2023-06-10T07:09:17;101651.50;;;23.34;49.85
46534;BME280;32260;52.008;4.752;2023-06-10T07:11:43;101652.78;;;23.43;48.74
46534;BME280;32260;52.008;4.752;2023-06-10T07:14:09;101649.50;;;23.52;49.37
46534;BME280;32260;52.008;4.752;2023-06-10T07:16:35;101655.31;;;23.61;49.49
46534;BME280;32260;52.008;4.752;2023-06-10T07:19:02;101646.59;;;23.70;49.63
46534;BME280;32260;52.008;4.752;2023-06-10T07:21:29;101646.22;;;23.76;48.81
46534;BME280;32260;52.008;4.752;2023-06-10T07:23:55;101650.94;;;23.87;48.10
46534;BME280;32260;52.008;4.752;2023-06-10T07:26:23;101647.56;;;23.83;47.41
46534;BME280;32260;52.008;4.752;2023-06-10T07:28:49;101654.34;;;23.90;47.44
46534;BME280;32260;52.008;4.752;2023-06-10T07:31:15;101656.09;;;24.06;47.52
46534;BME280;32260;52.008;4.752;2023-06-10T07:33:41;101654.53;;;24.16;48.51
46534;BME280;32260;52.008;4.752;2023-06-10T07:36:09;101653.06;;;24.25;46.38
46534;BME280;32260;52.008;4.752;2023-06-10T07:38:35;101653.13;;;24.38;47.32
46534;BME280;32260;52.008;4.752;2023-06-10T07:41:01;101641.88;;;24.44;46.62
46534;BME280;32260;52.008;4.752;2023-06-10T07:43:27;101656.25;;;24.59;46.93
46534;BME280;32260;52.008;4.752;2023-06-10T07:45:54;101656.44;;;24.70;46.85
46534;BME280;32260;52.008;4.752;2023-06-10T07:48:20;101657.88;;;24.76;46.65
46534;BME280;32260;52.008;4.752;2023-06-10T07:50:46;101657.13;;;24.87;46.98
46534;BME280;32260;52.008;4.752;2023-06-10T07:53:12;101660.09;;;24.97;47.17
46534;BME280;32260;52.008;4.752;2023-06-10T07:55:38;101653.94;;;25.08;46.67
46534;BME280;32260;52.008;4.752;2023-06-10T07:58:04;101649.59;;;25.18;46.80
46534;BME280;32260;52.008;4.752;2023-06-10T08:00:34;101654.06;;;25.32;46.49
46534;BME280;32260;52.008;4.752;2023-06-10T08:03:00;101650.66;;;25.43;46.28
46534;BME280;32260;52.008;4.752;2023-06-10T08:05:26;101651.72;;;25.53;45.85
46534;BME280;32260;52.008;4.752;2023-06-10T08:07:52;101658.88;;;25.67;46.35
46534;BME280;32260;52.008;4.752;2023-06-10T08:10:18;101657.25;;;25.77;46.10
46534;BME280;32260;52.008;4.752;2023-06-10T08:12:45;101653.88;;;25.87;45.94
46534;BME280;32260;52.008;4.752;2023-06-10T08:15:11;101655.81;;;25.97;45.68
46534;BME280;32260;52.008;4.752;2023-06-10T08:17:38;101656.16;;;26.06;46.20
46534;BME280;32260;52.008;4.752;2023-06-10T08:20:05;101648.94;;;26.18;46.39
46534;BME280;32260;52.008;4.752;2023-06-10T08:22:32;101650.75;;;26.30;45.61
46534;BME280;32260;52.008;4.752;2023-06-10T08:24:58;101654.53;;;26.40;45.46
46534;BME280;32260;52.008;4.752;2023-06-10T08:27:24;101645.19;;;26.44;44.96
46534;BME280;32260;52.008;4.752;2023-06-10T08:29:50;101651.66;;;26.55;45.07
46534;BME280;32260;52.008;4.752;2023-06-10T08:32:16;101650.22;;;26.62;43.65
46534;BME280;32260;52.008;4.752;2023-06-10T08:34:43;101651.91;;;26.63;43.57
46534;BME280;32260;52.008;4.752;2023-06-10T08:37:09;101651.47;;;26.69;43.47
46534;BME280;32260;52.008;4.752;2023-06-10T08:39:35;101643.91;;;26.86;43.90
46534;BME280;32260;52.008;4.752;2023-06-10T08:44:40;101653.88;;;27.09;44.73
46534;BME280;32260;52.008;4.752;2023-06-10T08:47:14;101649.97;;;27.25;43.38
46534;BME280;32260;52.008;4.752;2023-06-10T08:49:47;101652.59;;;27.38;44.02
46534;BME280;32260;52.008;4.752;2023-06-10T08:52:17;101653.00;;;27.44;43.04
46534;BME280;32260;52.008;4.752;2023-06-10T08:55:18;101649.53;;;27.54;42.21
46534;BME280;32260;52.008;4.752;2023-06-10T08:57:40;101644.09;;;27.65;41.30
46534;BME280;32260;52.008;4.752;2023-06-10T09:00:30;101649.56;;;27.76;42.80
46534;BME280;32260;52.008;4.752;2023-06-10T09:06:29;101644.63;;;27.93;41.15
46534;BME280;32260;52.008;4.752;2023-06-10T09:09:05;101644.84;;;28.01;41.64
46534;BME280;32260;52.008;4.752;2023-06-10T09:11:34;101648.44;;;28.13;41.79
46534;BME280;32260;52.008;4.752;2023-06-10T09:14:09;101653.38;;;28.31;41.33
46534;BME280;32260;52.008;4.752;2023-06-10T09:16:41;101651.13;;;28.36;40.34
46534;BME280;32260;52.008;4.752;2023-06-10T09:19:12;101648.78;;;28.43;40.08
46534;BME280;32260;52.008;4.752;2023-06-10T09:21:39;101658.66;;;28.55;40.63
46534;BME280;32260;52.008;4.752;2023-06-10T09:24:08;101648.44;;;28.68;41.08
46534;BME280;32260;52.008;4.752;2023-06-10T09:26:35;101646.09;;;28.75;39.62
46534;BME280;32260;52.008;4.752;2023-06-10T09:29:08;101648.63;;;28.88;38.81
46534;BME280;32260;52.008;4.752;2023-06-10T09:31:37;101645.97;;;28.98;40.28
46534;BME280;32260;52.008;4.752;2023-06-10T09:34:10;101644.47;;;29.05;37.87
46534;BME280;32260;52.008;4.752;2023-06-10T09:36:37;101643.03;;;29.11;38.52
46534;BME280;32260;52.008;4.752;2023-06-10T09:39:04;101642.50;;;29.17;38.39
46534;BME280;32260;52.008;4.752;2023-06-10T09:41:35;101644.06;;;29.31;38.77
46534;BME280;32260;52.008;4.752;2023-06-10T09:44:12;101650.31;;;29.43;38.76
46534;BME280;32260;52.008;4.752;2023-06-10T09:46:39;101649.19;;;29.45;39.12
46534;BME280;32260;52.008;4.752;2023-06-10T09:49:05;101647.38;;;29.56;38.09
46534;BME280;32260;52.008;4.752;2023-06-10T09:51:34;101642.50;;;29.59;38.09
46534;BME280;32260;52.008;4.752;2023-06-10T09:54:03;101642.75;;;29.77;39.08
46534;BME280;32260;52.008;4.752;2023-06-10T09:56:36;101634.91;;;29.94;38.97
46534;BME280;32260;52.008;4.752;2023-06-10T09:59:04;101640.56;;;30.02;38.33
46534;BME280;32260;52.008;4.752;2023-06-10T10:01:32;101639.88;;;30.10;37.03
46534;BME280;32260;52.008;4.752;2023-06-10T10:03:59;101630.38;;;30.14;35.46
46534;BME280;32260;52.008;4.752;2023-06-10T10:06:26;101644.22;;;30.22;35.95
46534;BME280;32260;52.008;4.752;2023-06-10T10:08:53;101638.44;;;30.25;35.09
46534;BME280;32260;52.008;4.752;2023-06-10T10:11:21;101639.19;;;30.37;35.22
46534;BME280;32260;52.008;4.752;2023-06-10T10:13:49;101637.91;;;30.41;37.40
46534;BME280;32260;52.008;4.752;2023-06-10T10:16:19;101623.53;;;30.49;36.85
46534;BME280;32260;52.008;4.752;2023-06-10T10:18:49;101625.44;;;30.58;36.49
46534;BME280;32260;52.008;4.752;2023-06-10T10:21:21;101631.78;;;30.69;36.60
46534;BME280;32260;52.008;4.752;2023-06-10T10:26:26;101626.88;;;30.92;36.16
46534;BME280;32260;52.008;4.752;2023-06-10T10:29:04;101622.41;;;31.01;36.60
46534;BME280;32260;52.008;4.752;2023-06-10T10:31:33;101615.88;;;31.02;33.13
46534;BME280;32260;52.008;4.752;2023-06-10T10:34:04;101620.06;;;31.06;34.28
46534;BME280;32260;52.008;4.752;2023-06-10T10:36:32;101619.22;;;31.15;36.70
46534;BME280;32260;52.008;4.752;2023-06-10T10:38:58;101614.88;;;31.22;35.63
46534;BME280;32260;52.008;4.752;2023-06-10T10:41:28;101613.16;;;31.21;34.11
46534;BME280;32260;52.008;4.752;2023-06-10T10:43:56;101608.09;;;31.26;34.55
46534;BME280;32260;52.008;4.752;2023-06-10T10:46:23;101609.63;;;31.39;34.54
46534;BME280;32260;52.008;4.752;2023-06-10T10:48:53;101602.97;;;31.51;34.58
46534;BME280;32260;52.008;4.752;2023-06-10T10:51:21;101610.28;;;31.60;34.88
46534;BME280;32260;52.008;4.752;2023-06-10T10:54:09;101606.38;;;31.73;35.24
46534;BME280;32260;52.008;4.752;2023-06-10T10:56:35;101604.91;;;31.78;34.41
46534;BME280;32260;52.008;4.752;2023-06-10T10:59:05;101610.31;;;31.88;32.99
46534;BME280;32260;52.008;4.752;2023-06-10T11:01:47;101602.28;;;32.05;33.54
46534;BME280;32260;52.008;4.752;2023-06-10T11:04:14;101602.78;;;32.00;33.32
46534;BME280;32260;52.008;4.752;2023-06-10T11:06:52;101601.00;;;32.09;32.93
46534;BME280;32260;52.008;4.752;2023-06-10T11:09:34;101593.13;;;32.24;33.48
46534;BME280;32260;52.008;4.752;2023-06-10T11:12:00;101598.06;;;32.20;32.91
46534;BME280;32260;52.008;4.752;2023-06-10T11:14:29;101606.34;;;32.29;32.72
46534;BME280;32260;52.008;4.752;2023-06-10T11:16:59;101594.13;;;32.41;33.64
46534;BME280;32260;52.008;4.752;2023-06-10T11:19:40;101589.03;;;32.46;30.50
46534;BME280;32260;52.008;4.752;2023-06-10T11:22:16;101586.72;;;32.51;31.98
46534;BME280;32260;52.008;4.752;2023-06-10T11:24:49;101592.59;;;32.56;32.73
46534;BME280;32260;52.008;4.752;2023-06-10T11:27:17;101590.06;;;32.63;31.39
46534;BME280;32260;52.008;4.752;2023-06-10T11:32:46;101577.97;;;32.74;29.99
46534;BME280;32260;52.008;4.752;2023-06-10T11:35:18;101578.38;;;32.79;29.43
46534;BME280;32260;52.008;4.752;2023-06-10T11:37:44;101571.78;;;32.90;30.13
46534;BME280;32260;52.008;4.752;2023-06-10T11:40:11;101568.63;;;32.85;30.07
46534;BME280;32260;52.008;4.752;2023-06-10T11:42:40;101567.16;;;32.90;31.08
46534;BME280;32260;52.008;4.752;2023-06-10T11:45:07;101576.41;;;32.89;31.28
46534;BME280;32260;52.008;4.752;2023-06-10T11:47:34;101572.47;;;32.92;29.14
46534;BME280;32260;52.008;4.752;2023-06-10T11:50:00;101570.66;;;33.01;29.43
46534;BME280;32260;52.008;4.752;2023-06-10T11:52:28;101573.28;;;33.11;30.66
46534;BME280;32260;52.008;4.752;2023-06-10T11:54:55;101566.16;;;33.00;28.03
46534;BME280;32260;52.008;4.752;2023-06-10T11:57:22;101563.19;;;33.11;29.12
46534;BME280;32260;52.008;4.752;2023-06-10T11:59:48;101565.38;;;33.08;27.96
46534;BME280;32260;52.008;4.752;2023-06-10T12:02:15;101569.72;;;33.18;30.19
46534;BME280;32260;52.008;4.752;2023-06-10T12:04:42;101558.97;;;33.25;28.87
46534;BME280;32260;52.008;4.752;2023-06-10T12:07:08;101557.78;;;33.28;28.25
46534;BME280;32260;52.008;4.752;2023-06-10T12:09:34;101561.47;;;33.36;29.26
46534;BME280;32260;52.008;4.752;2023-06-10T12:12:03;101550.66;;;33.43;28.66
46534;BME280;32260;52.008;4.752;2023-06-10T12:14:51;101553.13;;;33.54;27.88
46534;BME280;32260;52.008;4.752;2023-06-10T12:17:21;101542.13;;;33.54;29.50
46534;BME280;32260;52.008;4.752;2023-06-10T12:19:49;101545.09;;;33.61;28.19
46534;BME280;32260;52.008;4.752;2023-06-10T12:22:16;101545.97;;;33.70;26.53
46534;BME280;32260;52.008;4.752;2023-06-10T12:25:02;101555.25;;;33.69;27.57
46534;BME280;32260;52.008;4.752;2023-06-10T12:27:30;101543.91;;;33.72;27.96
46534;BME280;32260;52.008;4.752;2023-06-10T12:29:58;101539.59;;;33.69;26.33
46534;BME280;32260;52.008;4.752;2023-06-10T12:32:44;101549.38;;;33.64;27.58
46534;BME280;32260;52.008;4.752;2023-06-10T12:35:12;101539.28;;;33.73;28.30
46534;BME280;32260;52.008;4.752;2023-06-10T12:37:39;101539.81;;;33.76;26.88
46534;BME280;32260;52.008;4.752;2023-06-10T12:40:06;101547.28;;;33.92;28.23
46534;BME280;32260;52.008;4.752;2023-06-10T12:42:36;101541.13;;;33.98;28.50
46534;BME280;32260;52.008;4.752;2023-06-10T12:45:03;101543.84;;;34.07;28.22
46534;BME280;32260;52.008;4.752;2023-06-10T12:47:31;101534.78;;;34.23;26.53
46534;BME280;32260;52.008;4.752;2023-06-10T12:49:59;101545.81;;;34.39;28.14
46534;BME280;32260;52.008;4.752;2023-06-10T12:52:25;101544.63;;;34.50;27.68
46534;BME280;32260;52.008;4.752;2023-06-10T12:54:52;101537.56;;;34.56;27.17
46534;BME280;32260;52.008;4.752;2023-06-10T12:57:20;101536.53;;;34.57;28.40
46534;BME280;32260;52.008;4.752;2023-06-10T12:59:46;101533.41;;;34.68;28.13
46534;BME280;32260;52.008;4.752;2023-06-10T13:02:18;101534.81;;;34.56;25.89
46534;BME280;32260;52.008;4.752;2023-06-10T13:04:46;101538.94;;;34.76;27.62
46534;BME280;32260;52.008;4.752;2023-06-10T13:07:13;101538.41;;;34.81;27.48
46534;BME280;32260;52.008;4.752;2023-06-10T13:09:39;101532.03;;;34.80;28.03